sensor_id;sensor_type;location;lat;lon;timestamp;temperature;humidity
39453;DHT22;25154;-33.684;151.102;2022-07-29T00:01:15;12.70;99.90
39453;DHT22;25154;-33.684;151.102;2022-07-29T00:06:18;12.80;99.90
39453;DHT22;25154;-33.684;151.102;2022-07-29T00:11:24;12.90;99.90
39453;DHT22;25154;-33.684;151.102;2022-07-29T00:16:27;13.10;99.90
39453;DHT22;25154;-33.684;151.102;2022-07-29T00:21:30;13.10;99.90
39453;DHT22;25154;-33.684;151.102;2022-07-29T00:26:33;13.30;99.90
39453;DHT22;25154;-33.684;151.102;2022-07-29T00:31:37;13.30;99.90
39453;DHT22;25154;-33.684;151.102;2022-07-29T00:36:39;13.40;99.90
39453;DHT22;25154;-33.684;151.102;2022-07-29T00:41:42;13.70;99.90
39453;DHT22;25154;-33.684;151.102;2022-07-29T00:46:45;13.90;99.90
39453;DHT22;25154;-33.684;151.102;2022-07-29T00:51:49;13.80;99.90
39453;DHT22;25154;-33.684;151.102;2022-07-29T00:56:52;13.80;99.90
39453;DHT22;25154;-33.684;151.102;2022-07-29T01:01:56;14.20;99.90
39453;DHT22;25154;-33.684;151.102;2022-07-29T01:07:00;14.10;99.90
39453;DHT22;25154;-33.684;151.102;2022-07-29T01:12:04;13.90;99.90
39453;DHT22;25154;-33.684;151.102;2022-07-29T01:17:12;14.20;99.90
39453;DHT22;25154;-33.684;151.102;2022-07-29T01:32:56;14.50;99.90
39453;DHT22;25154;-33.684;151.102;2022-07-29T01:38:16;14.50;99.90
39453;DHT22;25154;-33.684;151.102;2022-07-29T01:49:00;14.70;99.80
39453;DHT22;25154;-33.684;151.102;2022-07-29T01:59:29;17.70;99.70
39453;DHT22;25154;-33.684;151.102;2022-07-29T02:04:34;15.30;99.80
39453;DHT22;25154;-33.684;151.102;2022-07-29T02:09:39;15.40;99.30
39453;DHT22;25154;-33.684;151.102;2022-07-29T02:14:49;15.40;98.60
39453;DHT22;25154;-33.684;151.102;2022-07-29T02:19:56;15.30;99.80
39453;DHT22;25154;-33.684;151.102;2022-07-29T02:24:59;15.70;99.30
39453;DHT22;25154;-33.684;151.102;2022-07-29T02:30:04;15.70;98.40
39453;DHT22;25154;-33.684;151.102;2022-07-29T02:35:09;15.70;99.00
39453;DHT22;25154;-33.684;151.102;2022-07-29T02:40:15;16.30;98.30
39453;DHT22;25154;-33.684;151.102;2022-07-29T02:45:20;16.20;97.20
39453;DHT22;25154;-33.684;151.102;2022-07-29T02:50:42;16.20;97.60
39453;DHT22;25154;-33.684;151.102;2022-07-29T02:55:55;16.20;96.50
39453;DHT22;25154;-33.684;151.102;2022-07-29T03:01:06;16.60;96.10
39453;DHT22;25154;-33.684;151.102;2022-07-29T03:06:12;16.50;95.00
39453;DHT22;25154;-33.684;151.102;2022-07-29T03:11:17;16.30;93.60
39453;DHT22;25154;-33.684;151.102;2022-07-29T03:16:22;16.10;94.00
39453;DHT22;25154;-33.684;151.102;2022-07-29T03:21:25;16.20;95.00
39453;DHT22;25154;-33.684;151.102;2022-07-29T03:26:28;16.50;94.40
39453;DHT22;25154;-33.684;151.102;2022-07-29T03:31:31;16.70;94.30
39453;DHT22;25154;-33.684;151.102;2022-07-29T03:36:33;16.60;93.60
39453;DHT22;25154;-33.684;151.102;2022-07-29T03:41:37;16.50;93.50
39453;DHT22;25154;-33.684;151.102;2022-07-29T03:46:42;16.90;92.80
39453;DHT22;25154;-33.684;151.102;2022-07-29T03:51:46;17.00;93.50
39453;DHT22;25154;-33.684;151.102;2022-07-29T03:56:50;18.00;93.60
39453;DHT22;25154;-33.684;151.102;2022-07-29T04:01:56;18.20;91.50
39453;DHT22;25154;-33.684;151.102;2022-07-29T04:06:59;17.90;91.80
39453;DHT22;25154;-33.684;151.102;2022-07-29T04:12:02;18.10;90.00
39453;DHT22;25154;-33.684;151.102;2022-07-29T04:17:05;17.90;90.70
39453;DHT22;25154;-33.684;151.102;2022-07-29T04:22:08;17.40;90.80
39453;DHT22;25154;-33.684;151.102;2022-07-29T04:27:11;18.00;87.90
39453;DHT22;25154;-33.684;151.102;2022-07-29T04:32:13;18.70;82.60
39453;DHT22;25154;-33.684;151.102;2022-07-29T04:37:16;18.30;81.70
39453;DHT22;25154;-33.684;151.102;2022-07-29T04:42:19;18.50;86.00
39453;DHT22;25154;-33.684;151.102;2022-07-29T04:47:22;19.00;87.40
39453;DHT22;25154;-33.684;151.102;2022-07-29T04:52:24;19.40;86.10
39453;DHT22;25154;-33.684;151.102;2022-07-29T04:57:27;19.30;88.10
39453;DHT22;25154;-33.684;151.102;2022-07-29T05:02:30;19.20;85.60
39453;DHT22;25154;-33.684;151.102;2022-07-29T05:07:32;19.30;85.40
39453;DHT22;25154;-33.684;151.102;2022-07-29T05:12:35;19.50;88.60
39453;DHT22;25154;-33.684;151.102;2022-07-29T05:17:38;20.10;86.30
39453;DHT22;25154;-33.684;151.102;2022-07-29T05:22:41;20.40;90.00
39453;DHT22;25154;-33.684;151.102;2022-07-29T05:27:44;20.70;84.70
39453;DHT22;25154;-33.684;151.102;2022-07-29T05:32:46;20.60;86.60
39453;DHT22;25154;-33.684;151.102;2022-07-29T05:37:49;20.10;88.60
39453;DHT22;25154;-33.684;151.102;2022-07-29T05:42:52;20.10;89.10
39453;DHT22;25154;-33.684;151.102;2022-07-29T05:47:55;20.30;86.60
39453;DHT22;25154;-33.684;151.102;2022-07-29T05:52:57;20.10;86.80
39453;DHT22;25154;-33.684;151.102;2022-07-29T05:58:00;19.80;86.70
39453;DHT22;25154;-33.684;151.102;2022-07-29T06:03:03;19.50;87.60
39453;DHT22;25154;-33.684;151.102;2022-07-29T06:08:06;19.40;87.60
39453;DHT22;25154;-33.684;151.102;2022-07-29T06:13:09;19.10;90.10
39453;DHT22;25154;-33.684;151.102;2022-07-29T06:18:12;18.90;87.70
39453;DHT22;25154;-33.684;151.102;2022-07-29T06:23:15;18.30;88.30
39453;DHT22;25154;-33.684;151.102;2022-07-29T06:28:18;17.40;91.50
39453;DHT22;25154;-33.684;151.102;2022-07-29T06:33:21;16.20;92.20
39453;DHT22;25154;-33.684;151.102;2022-07-29T06:38:23;15.50;94.10
39453;DHT22;25154;-33.684;151.102;2022-07-29T06:43:30;14.90;93.90
39453;DHT22;25154;-33.684;151.102;2022-07-29T06:48:37;14.10;94.70
39453;DHT22;25154;-33.684;151.102;2022-07-29T06:53:40;13.50;97.30
39453;DHT22;25154;-33.684;151.102;2022-07-29T06:58:43;12.90;99.90
39453;DHT22;25154;-33.684;151.102;2022-07-29T07:03:46;12.40;99.90
39453;DHT22;25154;-33.684;151.102;2022-07-29T07:08:49;12.00;99.90
39453;DHT22;25154;-33.684;151.102;2022-07-29T07:13:52;11.60;99.90
39453;DHT22;25154;-33.684;151.102;2022-07-29T07:18:55;11.30;99.90
39453;DHT22;25154;-33.684;151.102;2022-07-29T07:23:58;11.10;99.90
39453;DHT22;25154;-33.684;151.102;2022-07-29T07:29:00;10.80;99.90
39453;DHT22;25154;-33.684;151.102;2022-07-29T07:34:03;10.60;99.90
39453;DHT22;25154;-33.684;151.102;2022-07-29T07:39:06;10.40;99.90
39453;DHT22;25154;-33.684;151.102;2022-07-29T07:44:09;10.20;99.90
39453;DHT22;25154;-33.684;151.102;2022-07-29T07:49:11;10.10;99.90
39453;DHT22;25154;-33.684;151.102;2022-07-29T07:54:14;9.90;99.90
39453;DHT22;25154;-33.684;151.102;2022-07-29T07:59:17;9.70;99.90
39453;DHT22;25154;-33.684;151.102;2022-07-29T08:04:20;9.60;99.90
39453;DHT22;25154;-33.684;151.102;2022-07-29T08:09:23;9.50;99.90
39453;DHT22;25154;-33.684;151.102;2022-07-29T08:14:26;9.30;99.90
39453;DHT22;25154;-33.684;151.102;2022-07-29T08:19:29;9.20;99.90
39453;DHT22;25154;-33.684;151.102;2022-07-29T08:24:32;9.10;99.90
39453;DHT22;25154;-33.684;151.102;2022-07-29T08:30:11;9.00;99.90
39453;DHT22;25154;-33.684;151.102;2022-07-29T08:35:14;9.00;99.90
39453;DHT22;25154;-33.684;151.102;2022-07-29T08:40:16;9.00;99.90
39453;DHT22;25154;-33.684;151.102;2022-07-29T08:45:20;8.90;99.90
39453;DHT22;25154;-33.684;151.102;2022-07-29T08:50:23;8.80;99.90
39453;DHT22;25154;-33.684;151.102;2022-07-29T08:55:26;8.80;99.90
39453;DHT22;25154;-33.684;151.102;2022-07-29T09:00:30;8.70;99.90
39453;DHT22;25154;-33.684;151.102;2022-07-29T09:05:33;8.60;99.90
39453;DHT22;25154;-33.684;151.102;2022-07-29T09:10:36;8.60;99.90
39453;DHT22;25154;-33.684;151.102;2022-07-29T09:15:39;8.50;99.90
39453;DHT22;25154;-33.684;151.102;2022-07-29T09:20:52;8.40;99.90
39453;DHT22;25154;-33.684;151.102;2022-07-29T09:26:13;8.40;99.90
39453;DHT22;25154;-33.684;151.102;2022-07-29T09:31:15;8.40;99.90
39453;DHT22;25154;-33.684;151.102;2022-07-29T09:36:18;8.40;99.90
39453;DHT22;25154;-33.684;151.102;2022-07-29T09:41:21;8.40;99.90
39453;DHT22;25154;-33.684;151.102;2022-07-29T09:46:25;8.30;99.90
39453;DHT22;25154;-33.684;151.102;2022-07-29T09:51:28;8.30;99.90
39453;DHT22;25154;-33.684;151.102;2022-07-29T09:56:41;8.10;99.90
39453;DHT22;25154;-33.684;151.102;2022-07-29T10:01:44;7.90;99.90
39453;DHT22;25154;-33.684;151.102;2022-07-29T10:06:58;7.80;99.90
39453;DHT22;25154;-33.684;151.102;2022-07-29T10:12:06;7.80;99.90
39453;DHT22;25154;-33.684;151.102;2022-07-29T10:17:12;7.80;99.90
39453;DHT22;25154;-33.684;151.102;2022-07-29T10:22:14;7.60;99.90
39453;DHT22;25154;-33.684;151.102;2022-07-29T10:27:17;7.50;99.90
39453;DHT22;25154;-33.684;151.102;2022-07-29T10:43:08;7.40;99.90
39453;DHT22;25154;-33.684;151.102;2022-07-29T10:48:17;7.30;99.90
39453;DHT22;25154;-33.684;151.102;2022-07-29T10:53:21;7.20;99.90
39453;DHT22;25154;-33.684;151.102;2022-07-29T10:58:25;7.10;99.90
39453;DHT22;25154;-33.684;151.102;2022-07-29T11:03:47;7.10;99.90
39453;DHT22;25154;-33.684;151.102;2022-07-29T11:09:22;7.10;99.90
39453;DHT22;25154;-33.684;151.102;2022-07-29T11:25:37;7.10;99.90
39453;DHT22;25154;-33.684;151.102;2022-07-29T11:30:53;7.00;99.90
39453;DHT22;25154;-33.684;151.102;2022-07-29T11:36:26;7.00;99.90
39453;DHT22;25154;-33.684;151.102;2022-07-29T11:41:28;6.90;99.90
39453;DHT22;25154;-33.684;151.102;2022-07-29T11:46:50;6.90;99.90
39453;DHT22;25154;-33.684;151.102;2022-07-29T11:51:55;6.90;99.90
39453;DHT22;25154;-33.684;151.102;2022-07-29T11:56:59;6.80;99.90
39453;DHT22;25154;-33.684;151.102;2022-07-29T12:02:02;6.80;99.90
39453;DHT22;25154;-33.684;151.102;2022-07-29T12:07:08;6.60;99.90
39453;DHT22;25154;-33.684;151.102;2022-07-29T12:12:10;6.60;99.90
39453;DHT22;25154;-33.684;151.102;2022-07-29T12:17:33;6.40;99.90
39453;DHT22;25154;-33.684;151.102;2022-07-29T12:22:39;6.30;99.90
39453;DHT22;25154;-33.684;151.102;2022-07-29T12:27:42;6.30;99.90
39453;DHT22;25154;-33.684;151.102;2022-07-29T12:32:48;6.10;99.90
39453;DHT22;25154;-33.684;151.102;2022-07-29T12:37:51;6.10;99.90
39453;DHT22;25154;-33.684;151.102;2022-07-29T12:43:16;6.10;99.90
39453;DHT22;25154;-33.684;151.102;2022-07-29T12:48:36;6.10;99.90
39453;DHT22;25154;-33.684;151.102;2022-07-29T12:53:39;6.00;99.90
39453;DHT22;25154;-33.684;151.102;2022-07-29T12:58:42;6.00;99.90
39453;DHT22;25154;-33.684;151.102;2022-07-29T13:03:51;6.00;99.90
39453;DHT22;25154;-33.684;151.102;2022-07-29T13:09:12;5.90;99.90
39453;DHT22;25154;-33.684;151.102;2022-07-29T13:14:37;6.00;99.90
39453;DHT22;25154;-33.684;151.102;2022-07-29T13:19:46;6.10;99.90
39453;DHT22;25154;-33.684;151.102;2022-07-29T13:24:53;6.20;99.90
39453;DHT22;25154;-33.684;151.102;2022-07-29T13:29:58;6.30;99.90
39453;DHT22;25154;-33.684;151.102;2022-07-29T13:35:04;6.20;99.90
39453;DHT22;25154;-33.684;151.102;2022-07-29T13:40:09;6.90;99.90
39453;DHT22;25154;-33.684;151.102;2022-07-29T13:45:11;6.00;99.90
39453;DHT22;25154;-33.684;151.102;2022-07-29T13:50:14;6.00;99.90
39453;DHT22;25154;-33.684;151.102;2022-07-29T13:55:17;6.00;99.90
39453;DHT22;25154;-33.684;151.102;2022-07-29T14:00:20;5.80;99.90
39453;DHT22;25154;-33.684;151.102;2022-07-29T14:05:23;5.70;99.90
39453;DHT22;25154;-33.684;151.102;2022-07-29T14:10:26;5.60;99.90
39453;DHT22;25154;-33.684;151.102;2022-07-29T14:15:29;5.60;99.90
39453;DHT22;25154;-33.684;151.102;2022-07-29T14:20:32;5.50;99.90
39453;DHT22;25154;-33.684;151.102;2022-07-29T14:25:35;5.50;99.90
39453;DHT22;25154;-33.684;151.102;2022-07-29T14:30:37;5.40;99.90
39453;DHT22;25154;-33.684;151.102;2022-07-29T14:35:40;5.40;99.90
39453;DHT22;25154;-33.684;151.102;2022-07-29T14:40:43;5.10;99.90
39453;DHT22;25154;-33.684;151.102;2022-07-29T14:45:46;5.00;99.90
39453;DHT22;25154;-33.684;151.102;2022-07-29T14:50:48;5.10;99.90
39453;DHT22;25154;-33.684;151.102;2022-07-29T14:55:51;5.40;99.90
39453;DHT22;25154;-33.684;151.102;2022-07-29T15:00:54;5.40;99.90
39453;DHT22;25154;-33.684;151.102;2022-07-29T15:05:57;5.20;99.90
39453;DHT22;25154;-33.684;151.102;2022-07-29T15:11:00;5.00;99.90
39453;DHT22;25154;-33.684;151.102;2022-07-29T15:16:04;5.00;99.90
39453;DHT22;25154;-33.684;151.102;2022-07-29T15:21:07;5.10;99.90
39453;DHT22;25154;-33.684;151.102;2022-07-29T15:26:09;5.10;99.90
39453;DHT22;25154;-33.684;151.102;2022-07-29T15:31:12;5.00;99.90
39453;DHT22;25154;-33.684;151.102;2022-07-29T15:36:15;4.80;99.90
39453;DHT22;25154;-33.684;151.102;2022-07-29T15:41:18;4.90;99.90
39453;DHT22;25154;-33.684;151.102;2022-07-29T15:46:21;4.70;99.90
39453;DHT22;25154;-33.684;151.102;2022-07-29T15:51:42;4.80;99.90
39453;DHT22;25154;-33.684;151.102;2022-07-29T15:56:44;4.70;99.90
39453;DHT22;25154;-33.684;151.102;2022-07-29T16:01:47;4.70;99.90
39453;DHT22;25154;-33.684;151.102;2022-07-29T16:06:50;4.70;99.90
39453;DHT22;25154;-33.684;151.102;2022-07-29T16:11:53;4.70;99.90
39453;DHT22;25154;-33.684;151.102;2022-07-29T16:16:57;4.50;99.90
39453;DHT22;25154;-33.684;151.102;2022-07-29T16:21:59;4.80;99.90
39453;DHT22;25154;-33.684;151.102;2022-07-29T16:27:02;4.80;99.90
39453;DHT22;25154;-33.684;151.102;2022-07-29T16:32:05;4.50;99.90
39453;DHT22;25154;-33.684;151.102;2022-07-29T16:37:09;4.40;99.90
39453;DHT22;25154;-33.684;151.102;2022-07-29T16:42:11;4.50;99.90
39453;DHT22;25154;-33.684;151.102;2022-07-29T16:47:14;4.50;99.90
39453;DHT22;25154;-33.684;151.102;2022-07-29T16:52:17;4.40;99.90
39453;DHT22;25154;-33.684;151.102;2022-07-29T16:57:20;4.30;99.90
39453;DHT22;25154;-33.684;151.102;2022-07-29T17:02:23;4.50;99.90
39453;DHT22;25154;-33.684;151.102;2022-07-29T17:07:26;4.40;99.90
39453;DHT22;25154;-33.684;151.102;2022-07-29T17:12:29;4.30;99.90
39453;DHT22;25154;-33.684;151.102;2022-07-29T17:17:32;4.30;99.90
39453;DHT22;25154;-33.684;151.102;2022-07-29T17:22:36;4.50;99.90
39453;DHT22;25154;-33.684;151.102;2022-07-29T17:27:39;4.40;99.90
39453;DHT22;25154;-33.684;151.102;2022-07-29T17:32:43;4.50;99.90
39453;DHT22;25154;-33.684;151.102;2022-07-29T17:37:46;4.40;99.90
39453;DHT22;25154;-33.684;151.102;2022-07-29T17:42:48;4.50;99.90
39453;DHT22;25154;-33.684;151.102;2022-07-29T17:47:51;4.30;99.90
39453;DHT22;25154;-33.684;151.102;2022-07-29T17:52:54;4.20;99.90
39453;DHT22;25154;-33.684;151.102;2022-07-29T17:57:57;4.10;99.90
39453;DHT22;25154;-33.684;151.102;2022-07-29T18:02:59;3.80;99.90
39453;DHT22;25154;-33.684;151.102;2022-07-29T18:08:02;4.00;99.90
39453;DHT22;25154;-33.684;151.102;2022-07-29T18:13:05;4.30;99.90
39453;DHT22;25154;-33.684;151.102;2022-07-29T18:18:08;4.60;99.90
39453;DHT22;25154;-33.684;151.102;2022-07-29T18:23:11;4.60;99.90
39453;DHT22;25154;-33.684;151.102;2022-07-29T18:28:14;4.80;99.90
39453;DHT22;25154;-33.684;151.102;2022-07-29T18:33:17;4.80;99.90
39453;DHT22;25154;-33.684;151.102;2022-07-29T18:38:21;4.90;99.90
39453;DHT22;25154;-33.684;151.102;2022-07-29T18:43:23;4.80;99.90
39453;DHT22;25154;-33.684;151.102;2022-07-29T18:48:26;4.90;99.90
39453;DHT22;25154;-33.684;151.102;2022-07-29T18:53:29;5.00;99.90
39453;DHT22;25154;-33.684;151.102;2022-07-29T18:58:31;4.90;99.90
39453;DHT22;25154;-33.684;151.102;2022-07-29T19:03:34;4.90;99.90
39453;DHT22;25154;-33.684;151.102;2022-07-29T19:08:37;4.80;99.90
39453;DHT22;25154;-33.684;151.102;2022-07-29T19:13:40;4.70;99.90
39453;DHT22;25154;-33.684;151.102;2022-07-29T19:18:42;4.60;99.90
39453;DHT22;25154;-33.684;151.102;2022-07-29T19:23:45;4.60;99.90
39453;DHT22;25154;-33.684;151.102;2022-07-29T19:28:47;4.60;99.90
39453;DHT22;25154;-33.684;151.102;2022-07-29T19:33:50;4.50;99.90
39453;DHT22;25154;-33.684;151.102;2022-07-29T19:38:53;4.50;99.90
39453;DHT22;25154;-33.684;151.102;2022-07-29T19:43:57;4.50;99.90
39453;DHT22;25154;-33.684;151.102;2022-07-29T19:48:59;4.50;99.90
39453;DHT22;25154;-33.684;151.102;2022-07-29T19:54:02;4.40;99.90
39453;DHT22;25154;-33.684;151.102;2022-07-29T19:59:04;4.40;99.90
39453;DHT22;25154;-33.684;151.102;2022-07-29T20:04:06;4.50;99.90
39453;DHT22;25154;-33.684;151.102;2022-07-29T20:09:09;4.60;99.90
39453;DHT22;25154;-33.684;151.102;2022-07-29T20:14:11;4.60;99.90
39453;DHT22;25154;-33.684;151.102;2022-07-29T20:19:13;4.50;99.90
39453;DHT22;25154;-33.684;151.102;2022-07-29T20:24:16;4.60;99.90
39453;DHT22;25154;-33.684;151.102;2022-07-29T20:29:19;4.70;99.90
39453;DHT22;25154;-33.684;151.102;2022-07-29T20:34:23;4.70;99.90
39453;DHT22;25154;-33.684;151.102;2022-07-29T20:39:25;4.70;99.90
39453;DHT22;25154;-33.684;151.102;2022-07-29T20:44:28;5.40;99.90
39453;DHT22;25154;-33.684;151.102;2022-07-29T20:49:32;4.70;99.90
39453;DHT22;25154;-33.684;151.102;2022-07-29T20:54:36;4.60;99.90
39453;DHT22;25154;-33.684;151.102;2022-07-29T20:59:40;4.60;99.90
39453;DHT22;25154;-33.684;151.102;2022-07-29T21:04:44;4.60;99.90
39453;DHT22;25154;-33.684;151.102;2022-07-29T21:09:48;4.50;99.90
39453;DHT22;25154;-33.684;151.102;2022-07-29T21:14:51;4.50;99.90
39453;DHT22;25154;-33.684;151.102;2022-07-29T21:19:55;4.40;99.90
39453;DHT22;25154;-33.684;151.102;2022-07-29T21:24:57;4.40;99.90
39453;DHT22;25154;-33.684;151.102;2022-07-29T21:30:01;4.40;99.90
39453;DHT22;25154;-33.684;151.102;2022-07-29T21:35:04;4.30;99.90
39453;DHT22;25154;-33.684;151.102;2022-07-29T21:40:07;4.20;99.90
39453;DHT22;25154;-33.684;151.102;2022-07-29T21:45:09;4.20;99.90
39453;DHT22;25154;-33.684;151.102;2022-07-29T21:50:13;4.30;99.90
39453;DHT22;25154;-33.684;151.102;2022-07-29T21:55:16;4.50;99.90
39453;DHT22;25154;-33.684;151.102;2022-07-29T22:00:18;4.90;99.90
39453;DHT22;25154;-33.684;151.102;2022-07-29T22:05:21;5.30;99.90
39453;DHT22;25154;-33.684;151.102;2022-07-29T22:10:26;5.60;99.90
39453;DHT22;25154;-33.684;151.102;2022-07-29T22:15:29;5.80;99.90
39453;DHT22;25154;-33.684;151.102;2022-07-29T22:20:32;6.10;99.90
39453;DHT22;25154;-33.684;151.102;2022-07-29T22:25:35;6.40;99.90
39453;DHT22;25154;-33.684;151.102;2022-07-29T22:30:37;6.70;99.90
39453;DHT22;25154;-33.684;151.102;2022-07-29T22:35:39;6.90;99.90
39453;DHT22;25154;-33.684;151.102;2022-07-29T22:40:41;7.10;99.90
39453;DHT22;25154;-33.684;151.102;2022-07-29T22:45:44;7.30;99.90
39453;DHT22;25154;-33.684;151.102;2022-07-29T22:50:46;7.50;99.90
39453;DHT22;25154;-33.684;151.102;2022-07-29T22:55:49;7.70;99.90
39453;DHT22;25154;-33.684;151.102;2022-07-29T23:00:51;7.90;99.90
39453;DHT22;25154;-33.684;151.102;2022-07-29T23:05:53;7.90;99.90
39453;DHT22;25154;-33.684;151.102;2022-07-29T23:10:56;8.20;99.90
39453;DHT22;25154;-33.684;151.102;2022-07-29T23:15:58;8.50;99.90
39453;DHT22;25154;-33.684;151.102;2022-07-29T23:21:01;8.70;99.90
39453;DHT22;25154;-33.684;151.102;2022-07-29T23:26:04;9.00;99.90
39453;DHT22;25154;-33.684;151.102;2022-07-29T23:31:06;9.30;99.90
39453;DHT22;25154;-33.684;151.102;2022-07-29T23:36:08;9.40;99.90
39453;DHT22;25154;-33.684;151.102;2022-07-29T23:41:11;9.70;99.90
39453;DHT22;25154;-33.684;151.102;2022-07-29T23:46:14;10.00;99.90
39453;DHT22;25154;-33.684;151.102;2022-07-29T23:51:16;10.10;99.90
39453;DHT22;25154;-33.684;151.102;2022-07-29T23:56:19;10.40;99.90
